Time;durP1;ratioP1;P1;durP2;ratioP2;P2;SDS_P1;SDS_P2;PMS_P1;PMS_P2;Temp;Humidity;BMP_temperature;BMP_pressure;BME280_temperature;BME280_humidity;BME280_pressure;Samples;Min_cycle;Max_cycle;Signal;HPM_P1;HPM_P2
2022/03/06 00:02:10;;;;;;;12.70;10.80;;;3.50;51.70;;;;;;5020772;28;20281;-86
2022/03/06 00:04:36;;;;;;;13.27;10.83;;;3.40;51.60;;;;;;5024324;28;20213;-86
2022/03/06 00:07:01;;;;;;;16.07;11.30;;;3.40;52.20;;;;;;5032374;28;20200;-86
2022/03/06 00:09:27;;;;;;;13.00;11.47;;;3.30;52.20;;;;;;5027607;28;20221;-86
2022/03/06 00:11:54;;;;;;;13.00;11.17;;;3.30;51.70;;;;;;5024346;28;20232;-86
2022/03/06 00:14:20;;;;;;;12.17;10.43;;;3.20;52.30;;;;;;5024428;28;20196;-86
2022/03/06 00:16:46;;;;;;;12.77;10.97;;;3.10;52.90;;;;;;5020266;28;20191;-86
2022/03/06 00:19:12;;;;;;;13.67;10.80;;;3.10;52.80;;;;;;5004306;28;20216;-86
2022/03/06 00:21:39;;;;;;;13.77;10.80;;;3.20;52.50;;;;;;5022804;28;20198;-86
2022/03/06 00:24:06;;;;;;;13.97;11.87;;;3.20;52.00;;;;;;5007784;28;20190;-86
2022/03/06 00:26:32;;;;;;;12.63;11.03;;;3.20;52.80;;;;;;5024539;28;20255;-86
2022/03/06 00:28:58;;;;;;;17.80;12.53;;;3.20;52.80;;;;;;5030866;28;20251;-85
2022/03/06 00:31:24;;;;;;;17.23;12.90;;;3.10;53.20;;;;;;5022211;28;20221;-85
2022/03/06 00:33:50;;;;;;;15.10;12.80;;;3.20;53.00;;;;;;5011416;28;20220;-86
2022/03/06 00:36:16;;;;;;;14.93;11.97;;;3.10;53.70;;;;;;5025687;28;20229;-86
2022/03/06 00:38:42;;;;;;;16.57;12.60;;;3.10;53.50;;;;;;5021274;28;20198;-86
2022/03/06 00:41:08;;;;;;;14.53;11.37;;;3.10;53.20;;;;;;5024349;28;20244;-86
2022/03/06 00:43:34;;;;;;;14.47;11.83;;;3.00;52.70;;;;;;5025543;28;20201;-86
2022/03/06 00:46:00;;;;;;;14.07;11.33;;;2.80;53.10;;;;;;5027823;28;20228;-86
2022/03/06 00:48:25;;;;;;;12.50;10.67;;;2.50;53.80;;;;;;5020138;28;20217;-86
2022/03/06 00:50:51;;;;;;;16.90;12.37;;;2.60;54.50;;;;;;5030449;28;20220;-86
2022/03/06 00:53:17;;;;;;;12.93;11.27;;;2.50;54.60;;;;;;5027113;28;20229;-86
2022/03/06 00:55:43;;;;;;;14.20;11.00;;;2.60;54.40;;;;;;5028278;28;20632;-86
2022/03/06 00:58:09;;;;;;;14.77;10.90;;;2.60;54.60;;;;;;5023951;28;20212;-86
2022/03/06 01:00:40;;;;;;;14.67;11.03;;;2.70;54.10;;;;;;5026120;28;20217;-86
2022/03/06 01:03:18;;;;;;;11.93;10.57;;;2.80;53.90;;;;;;5028974;28;20197;-86
2022/03/06 01:05:44;;;;;;;13.50;11.00;;;2.80;54.20;;;;;;5024777;28;20206;-86
2022/03/06 01:08:10;;;;;;;12.77;10.97;;;2.80;54.00;;;;;;5027218;28;20197;-86
2022/03/06 01:10:37;;;;;;;11.77;9.63;;;2.80;54.00;;;;;;5026452;28;20744;-86
2022/03/06 01:13:04;;;;;;;12.07;10.23;;;2.80;54.00;;;;;;5016022;28;20205;-86
2022/03/06 01:15:30;;;;;;;12.43;10.00;;;2.90;54.80;;;;;;5020919;28;20277;-86
2022/03/06 01:17:56;;;;;;;12.30;10.50;;;3.00;54.50;;;;;;5023857;28;20530;-86
2022/03/06 01:20:23;;;;;;;11.50;10.30;;;2.90;53.10;;;;;;5025078;28;20255;-87
2022/03/06 01:22:50;;;;;;;13.10;9.97;;;2.80;53.40;;;;;;5010674;28;20194;-86
2022/03/06 01:25:16;;;;;;;13.60;9.93;;;2.70;54.80;;;;;;5026585;28;20227;-86
2022/03/06 01:27:42;;;;;;;11.67;10.37;;;2.80;54.30;;;;;;5011165;28;20189;-86
2022/03/06 01:30:11;;;;;;;11.97;10.27;;;2.80;54.60;;;;;;5027713;28;20210;-86
2022/03/06 01:32:37;;;;;;;11.20;9.90;;;2.70;54.10;;;;;;5025903;28;20214;-86
2022/03/06 01:35:04;;;;;;;14.37;10.40;;;2.70;54.40;;;;;;5028253;28;20216;-86
2022/03/06 01:37:29;;;;;;;12.10;10.63;;;2.80;54.90;;;;;;5024382;28;20207;-86
2022/03/06 01:39:55;;;;;;;12.50;10.17;;;2.70;54.70;;;;;;5021578;28;20233;-86
2022/03/06 01:42:21;;;;;;;13.13;9.97;;;2.80;54.50;;;;;;5032120;28;20201;-86
2022/03/06 01:44:51;;;;;;;12.47;10.40;;;2.80;53.40;;;;;;5033802;28;20225;-86
2022/03/06 01:47:39;;;;;;;12.67;10.33;;;2.60;53.50;;;;;;5027940;28;20212;-86
2022/03/06 01:50:13;;;;;;;12.73;11.27;;;2.50;54.90;;;;;;5026630;28;20212;-87
2022/03/06 01:52:39;;;;;;;14.23;10.93;;;2.30;56.00;;;;;;5026498;28;20236;-86
2022/03/06 01:55:05;;;;;;;13.53;10.70;;;2.20;57.10;;;;;;5016029;28;20201;-86
2022/03/06 01:57:32;;;;;;;12.57;10.20;;;2.20;56.60;;;;;;5027632;28;20217;-86
2022/03/06 01:59:59;;;;;;;11.97;9.57;;;2.20;56.60;;;;;;5026566;28;20248;-86
2022/03/06 02:02:25;;;;;;;13.70;11.13;;;2.20;56.30;;;;;;5020044;28;20181;-86
2022/03/06 02:04:51;;;;;;;12.03;10.03;;;2.20;56.60;;;;;;5025789;28;20200;-86
2022/03/06 02:07:17;;;;;;;12.23;9.80;;;2.30;56.90;;;;;;5026660;28;20189;-86
2022/03/06 02:09:43;;;;;;;12.57;10.17;;;2.30;56.50;;;;;;5026373;28;20209;-86
2022/03/06 02:12:24;;;;;;;12.47;10.17;;;2.20;56.10;;;;;;5027082;28;20228;-86
2022/03/06 02:14:55;;;;;;;12.50;10.23;;;2.20;56.50;;;;;;5023787;28;20200;-86
2022/03/06 02:17:22;;;;;;;12.77;10.13;;;2.30;57.00;;;;;;5026698;28;20257;-86
2022/03/06 02:19:58;;;;;;;12.77;10.27;;;2.40;56.10;;;;;;5024473;28;20285;-86
2022/03/06 02:22:27;;;;;;;12.93;10.73;;;2.30;56.00;;;;;;5041045;28;20216;-86
2022/03/06 02:24:53;;;;;;;10.27;8.83;;;2.20;56.40;;;;;;5022303;28;20265;-85
2022/03/06 02:27:19;;;;;;;14.50;11.53;;;2.20;56.60;;;;;;5017510;28;20560;-86
2022/03/06 02:29:45;;;;;;;14.60;11.03;;;2.20;55.40;;;;;;5023482;28;20237;-86
2022/03/06 02:32:13;;;;;;;13.17;10.23;;;2.10;56.40;;;;;;5025002;28;20260;-86
2022/03/06 02:34:42;;;;;;;12.30;9.90;;;2.10;56.50;;;;;;5025605;28;20193;-85
2022/03/06 02:37:08;;;;;;;13.20;9.27;;;2.00;57.00;;;;;;5018664;28;20233;-86
2022/03/06 02:39:34;;;;;;;12.83;10.83;;;2.10;58.00;;;;;;5015943;28;20293;-86
2022/03/06 02:42:02;;;;;;;12.53;9.77;;;2.10;57.00;;;;;;5035934;28;20251;-86
2022/03/06 02:44:29;;;;;;;10.83;9.57;;;2.10;56.60;;;;;;5020688;28;20288;-86
2022/03/06 02:46:55;;;;;;;11.90;10.23;;;2.10;57.40;;;;;;5013958;28;20209;-86
2022/03/06 02:49:21;;;;;;;12.10;10.07;;;2.20;57.50;;;;;;5025868;28;20197;-86
2022/03/06 02:51:48;;;;;;;13.77;11.00;;;2.20;56.90;;;;;;5030596;28;20194;-86
2022/03/06 02:54:17;;;;;;;15.10;11.43;;;2.30;56.80;;;;;;5019493;28;20312;-85
2022/03/06 02:56:43;;;;;;;15.27;10.67;;;2.30;55.60;;;;;;5017214;28;20576;-86
2022/03/06 02:59:10;;;;;;;13.90;11.17;;;2.20;55.40;;;;;;5017137;28;20261;-86
2022/03/06 03:01:40;;;;;;;11.43;10.00;;;2.20;56.90;;;;;;5012691;28;20659;-86
2022/03/06 03:04:09;;;;;;;13.67;10.10;;;2.20;57.40;;;;;;5018412;28;20220;-86
2022/03/06 03:06:36;;;;;;;12.17;9.97;;;2.20;57.10;;;;;;5018914;28;20236;-86
2022/03/06 03:09:06;;;;;;;11.13;9.97;;;2.30;57.00;;;;;;5014567;28;20186;-86
2022/03/06 03:11:33;;;;;;;14.37;11.00;;;2.30;55.50;;;;;;5018061;28;20186;-86
2022/03/06 03:14:00;;;;;;;14.87;10.57;;;2.20;55.80;;;;;;5015120;28;20221;-86
2022/03/06 03:16:26;;;;;;;14.07;11.17;;;2.00;57.30;;;;;;5015030;28;20216;-86
2022/03/06 03:18:52;;;;;;;12.87;10.83;;;1.90;58.00;;;;;;5018787;28;20198;-86
2022/03/06 03:21:17;;;;;;;13.03;10.77;;;2.00;57.60;;;;;;5019422;28;20240;-86
2022/03/06 03:23:43;;;;;;;13.37;10.27;;;2.10;57.40;;;;;;5017959;28;20205;-86
2022/03/06 03:26:09;;;;;;;14.47;11.67;;;2.00;57.00;;;;;;5014857;28;20620;-86
2022/03/06 03:28:35;;;;;;;12.93;9.93;;;1.80;56.70;;;;;;5017393;28;20205;-86
2022/03/06 03:31:00;;;;;;;13.70;10.07;;;1.70;57.70;;;;;;5029894;28;20272;-86
2022/03/06 03:33:26;;;;;;;12.07;10.20;;;1.80;58.10;;;;;;5011621;28;20281;-86
2022/03/06 03:35:53;;;;;;;12.03;9.87;;;1.80;58.10;;;;;;5006518;28;20205;-86
2022/03/06 03:38:19;;;;;;;12.23;10.20;;;1.80;58.60;;;;;;5015222;28;20202;-86
2022/03/06 03:40:45;;;;;;;12.77;10.97;;;1.90;58.20;;;;;;5014455;28;20213;-86
2022/03/06 03:43:10;;;;;;;13.87;11.27;;;1.90;57.20;;;;;;5017785;28;20299;-86
2022/03/06 03:45:37;;;;;;;14.93;9.97;;;1.80;57.90;;;;;;5031595;28;20204;-86
2022/03/06 03:48:03;;;;;;;12.87;9.97;;;1.70;58.60;;;;;;5014789;28;20762;-86
2022/03/06 03:50:29;;;;;;;12.30;9.83;;;1.80;58.50;;;;;;5009618;28;20217;-86
2022/03/06 03:52:54;;;;;;;13.53;10.10;;;1.80;58.30;;;;;;5017352;28;20271;-86
2022/03/06 03:55:20;;;;;;;11.50;9.87;;;1.90;57.50;;;;;;4999750;28;20213;-86
2022/03/06 03:57:46;;;;;;;13.10;10.57;;;1.70;57.80;;;;;;5016602;28;20198;-86
2022/03/06 04:00:12;;;;;;;12.80;9.73;;;1.70;58.80;;;;;;5011510;28;20967;-86
2022/03/06 04:02:38;;;;;;;15.47;10.97;;;1.70;58.00;;;;;;5012983;28;20196;-86
2022/03/06 04:05:04;;;;;;;14.70;11.60;;;1.60;57.80;;;;;;5014116;28;20197;-86
2022/03/06 04:07:30;;;;;;;12.47;10.23;;;1.50;58.90;;;;;;5004750;28;20194;-86
2022/03/06 04:09:56;;;;;;;12.90;10.63;;;1.20;60.80;;;;;;5017169;28;20284;-86
2022/03/06 04:12:21;;;;;;;12.30;10.00;;;1.00;61.70;;;;;;5017925;28;20224;-86
2022/03/06 04:14:47;;;;;;;13.57;10.60;;;0.90;61.90;;;;;;5017591;28;20206;-86
2022/03/06 04:17:13;;;;;;;12.87;10.13;;;0.90;61.90;;;;;;5031308;28;20213;-86
2022/03/06 04:19:39;;;;;;;11.93;10.70;;;0.80;62.20;;;;;;5021374;28;20237;-86
2022/03/06 04:22:04;;;;;;;11.53;9.77;;;0.70;62.50;;;;;;5018361;28;20198;-86
2022/03/06 04:24:30;;;;;;;14.57;10.83;;;0.70;63.40;;;;;;5018559;28;20190;-86
2022/03/06 04:26:56;;;;;;;13.83;10.13;;;0.80;62.50;;;;;;5025728;28;20193;-86
2022/03/06 04:29:22;;;;;;;14.13;10.60;;;0.90;62.30;;;;;;5022553;28;20955;-86
2022/03/06 04:31:47;;;;;;;13.70;9.80;;;0.90;61.60;;;;;;5019183;28;20190;-86
2022/03/06 04:34:13;;;;;;;13.27;10.53;;;0.80;61.80;;;;;;5020834;28;20192;-86
2022/03/06 04:36:39;;;;;;;13.77;10.10;;;0.60;63.40;;;;;;5024726;28;20189;-86
2022/03/06 04:39:05;;;;;;;12.03;9.83;;;0.70;64.40;;;;;;5031402;28;20197;-86
2022/03/06 04:41:31;;;;;;;12.77;10.10;;;0.80;63.30;;;;;;5019348;28;20549;-86
2022/03/06 04:43:57;;;;;;;11.87;9.83;;;0.80;62.10;;;;;;5018745;28;20194;-86
2022/03/06 04:46:23;;;;;;;13.10;10.10;;;0.80;62.50;;;;;;5022008;28;20305;-86
2022/03/06 04:48:49;;;;;;;12.07;9.80;;;0.70;63.10;;;;;;5023185;28;20194;-86
2022/03/06 04:51:15;;;;;;;12.90;9.80;;;0.70;63.80;;;;;;5022976;28;20288;-86
2022/03/06 04:53:41;;;;;;;12.53;9.93;;;0.70;63.80;;;;;;5022061;28;20263;-86
2022/03/06 04:56:07;;;;;;;12.27;9.87;;;0.80;63.80;;;;;;5004665;28;20209;-86
2022/03/06 04:58:33;;;;;;;11.00;9.77;;;1.00;62.90;;;;;;5020734;28;20272;-86
2022/03/06 05:00:58;;;;;;;12.63;10.30;;;1.10;62.00;;;;;;5019628;28;20205;-86
2022/03/06 05:03:24;;;;;;;13.10;10.50;;;1.20;61.00;;;;;;5019581;28;20260;-86
2022/03/06 05:05:50;;;;;;;13.20;10.13;;;1.20;61.20;;;;;;5021538;28;20204;-86
2022/03/06 05:08:16;;;;;;;14.43;10.77;;;1.20;60.60;;;;;;5022070;28;20192;-86
2022/03/06 05:10:41;;;;;;;14.00;10.07;;;1.20;60.70;;;;;;5018888;28;20221;-85
2022/03/06 05:13:09;;;;;;;12.53;10.13;;;1.00;61.70;;;;;;5034415;28;20245;-86
2022/03/06 05:15:35;;;;;;;13.47;10.33;;;0.60;63.60;;;;;;5019044;28;20202;-86
2022/03/06 05:18:01;;;;;;;13.80;10.10;;;0.40;64.70;;;;;;5009771;28;20216;-86
2022/03/06 05:20:27;;;;;;;13.43;10.53;;;0.20;65.40;;;;;;5021284;28;20205;-86
2022/03/06 05:22:53;;;;;;;13.80;10.60;;;0.20;66.50;;;;;;5017844;28;20260;-86
2022/03/06 05:25:19;;;;;;;12.60;10.47;;;0.20;66.10;;;;;;5016976;28;20201;-86
2022/03/06 05:27:45;;;;;;;12.67;9.50;;;0.20;66.90;;;;;;5015007;28;20185;-86
2022/03/06 05:30:13;;;;;;;12.47;9.87;;;0.30;66.80;;;;;;5038800;28;20194;-86
2022/03/06 05:32:39;;;;;;;13.13;10.00;;;0.40;65.60;;;;;;5027576;28;20213;-86
2022/03/06 05:35:06;;;;;;;14.53;10.47;;;0.50;64.90;;;;;;5019641;28;20197;-86
2022/03/06 05:37:31;;;;;;;14.37;10.33;;;0.40;64.90;;;;;;5021646;28;20190;-86
2022/03/06 05:39:57;;;;;;;12.07;9.97;;;0.30;65.30;;;;;;5019881;28;20240;-86
2022/03/06 05:42:23;;;;;;;12.37;10.03;;;0.30;65.70;;;;;;5020108;28;20268;-86
2022/03/06 05:44:49;;;;;;;11.53;9.60;;;0.20;65.90;;;;;;5019547;28;20189;-86
2022/03/06 05:47:14;;;;;;;13.27;10.20;;;0.30;66.50;;;;;;5034943;28;20220;-86
2022/03/06 05:49:40;;;;;;;12.97;10.43;;;0.40;65.70;;;;;;5020529;28;20394;-86
2022/03/06 05:52:06;;;;;;;14.30;10.40;;;0.40;65.00;;;;;;5008250;28;20363;-86
2022/03/06 05:54:32;;;;;;;13.97;9.97;;;0.40;64.70;;;;;;5020020;28;20194;-86
2022/03/06 05:56:57;;;;;;;14.03;10.97;;;0.40;64.40;;;;;;5020256;28;20189;-86
2022/03/06 05:59:23;;;;;;;12.97;10.47;;;0.20;65.20;;;;;;5015200;28;20213;-85
2022/03/06 06:01:49;;;;;;;12.43;9.93;;;0.10;66.30;;;;;;5008788;28;20649;-86
2022/03/06 06:04:15;;;;;;;13.37;10.43;;;0.00;67.00;;;;;;5019217;28;20229;-86
2022/03/06 06:06:41;;;;;;;16.07;10.83;;;0.00;66.80;;;;;;5021805;28;20319;-86
2022/03/06 06:09:07;;;;;;;11.33;10.13;;;0.00;66.70;;;;;;5020096;28;20218;-86
2022/03/06 06:11:33;;;;;;;14.90;10.37;;;0.00;67.20;;;;;;5020234;28;20190;-86
2022/03/06 06:13:59;;;;;;;14.37;10.53;;;-0.20;67.90;;;;;;5020103;28;20218;-86
2022/03/06 06:16:25;;;;;;;14.43;10.60;;;-0.20;68.30;;;;;;5012465;28;20599;-85
2022/03/06 06:18:51;;;;;;;12.37;9.93;;;-0.20;68.30;;;;;;5033654;28;20196;-85
2022/03/06 06:21:19;;;;;;;13.67;10.60;;;0.00;68.70;;;;;;5026858;28;20222;-89
2022/03/06 06:23:45;;;;;;;13.67;10.07;;;0.20;67.30;;;;;;5022590;28;20190;-89
2022/03/06 06:26:11;;;;;;;15.07;9.57;;;0.40;66.00;;;;;;5023771;28;20189;-89
2022/03/06 06:28:37;;;;;;;15.13;10.43;;;0.50;65.80;;;;;;5033691;28;20260;-87
2022/03/06 06:31:04;;;;;;;13.73;10.80;;;0.40;66.00;;;;;;5040474;28;20213;-86
2022/03/06 06:33:30;;;;;;;14.10;11.23;;;0.20;67.20;;;;;;5031854;28;20205;-87
2022/03/06 06:35:56;;;;;;;12.23;10.23;;;0.00;68.20;;;;;;5030511;28;20201;-87
2022/03/06 06:38:22;;;;;;;16.57;11.50;;;0.10;68.40;;;;;;5023447;28;20197;-88
2022/03/06 06:40:52;;;;;;;12.87;10.43;;;0.30;67.70;;;;;;5014582;28;20213;-87
2022/03/06 06:43:19;;;;;;;12.47;9.97;;;0.40;66.90;;;;;;5015920;28;20202;-88
2022/03/06 06:45:45;;;;;;;13.60;10.33;;;0.50;66.50;;;;;;5014047;28;20212;-88
2022/03/06 06:48:11;;;;;;;12.90;10.20;;;0.70;65.80;;;;;;5031117;28;20190;-87
2022/03/06 06:50:37;;;;;;;15.13;10.33;;;0.80;65.50;;;;;;5014488;28;20228;-88
2022/03/06 06:53:03;;;;;;;13.43;10.47;;;0.90;65.90;;;;;;5031210;28;20699;-88
2022/03/06 06:55:29;;;;;;;12.67;10.43;;;0.90;66.10;;;;;;5026112;28;20197;-89
2022/03/06 06:57:55;;;;;;;14.23;11.03;;;0.90;66.70;;;;;;5047125;28;20249;-88
2022/03/06 07:00:21;;;;;;;15.03;10.77;;;0.60;67.70;;;;;;5024162;28;20221;-88
2022/03/06 07:02:47;;;;;;;14.43;11.17;;;0.40;68.50;;;;;;5022496;28;20221;-88
2022/03/06 07:05:14;;;;;;;14.83;10.83;;;0.50;68.70;;;;;;5022609;28;20232;-89
2022/03/06 07:07:39;;;;;;;15.53;11.67;;;0.60;68.30;;;;;;5024380;28;20193;-88
2022/03/06 07:10:06;;;;;;;12.80;10.63;;;0.60;67.80;;;;;;5005709;28;20214;-88
2022/03/06 07:12:47;;;;;;;13.77;11.13;;;0.60;67.60;;;;;;5006700;28;20240;-89
2022/03/06 07:15:15;;;;;;;15.97;10.87;;;0.70;67.80;;;;;;5019044;28;20189;-89
2022/03/06 07:17:41;;;;;;;12.80;9.80;;;0.70;68.10;;;;;;5017951;28;20247;-89
2022/03/06 07:20:09;;;;;;;12.37;10.07;;;0.90;67.90;;;;;;5036917;28;20276;-89
2022/03/06 07:22:34;;;;;;;13.07;9.80;;;1.00;66.90;;;;;;5023337;28;20273;-89
2022/03/06 07:25:00;;;;;;;12.03;10.27;;;1.20;65.90;;;;;;5022408;28;20202;-89
2022/03/06 07:27:26;;;;;;;15.37;11.67;;;1.50;65.30;;;;;;5024537;28;20201;-90
2022/03/06 07:29:52;;;;;;;13.77;10.57;;;1.60;64.20;;;;;;5025092;28;20280;-89
2022/03/06 07:32:18;;;;;;;15.60;11.40;;;1.80;63.50;;;;;;5036173;28;20412;-90
2022/03/06 07:34:43;;;;;;;18.10;15.40;;;1.90;62.90;;;;;;5006883;28;20657;-89
2022/03/06 07:37:09;;;;;;;18.10;14.27;;;2.00;62.20;;;;;;5023783;28;20205;-89
2022/03/06 07:39:35;;;;;;;15.97;13.77;;;2.00;62.10;;;;;;5020682;28;20205;-90
2022/03/06 07:42:01;;;;;;;15.80;12.97;;;2.10;61.80;;;;;;5020752;28;20198;-89
2022/03/06 07:44:27;;;;;;;18.07;14.67;;;2.20;61.80;;;;;;5012652;28;20200;-89
2022/03/06 07:46:53;;;;;;;16.97;12.50;;;2.20;61.50;;;;;;5020398;28;20216;-90
2022/03/06 07:49:19;;;;;;;17.20;14.97;;;2.30;61.50;;;;;;5023144;28;20190;-90
2022/03/06 07:51:44;;;;;;;14.10;12.47;;;2.30;61.40;;;;;;5022204;28;20182;-89
2022/03/06 07:54:14;;;;;;;14.77;12.60;;;2.30;61.30;;;;;;5022471;28;20291;-89
2022/03/06 07:56:41;;;;;;;17.63;14.67;;;2.20;61.80;;;;;;5002862;28;20187;-89
2022/03/06 07:59:07;;;;;;;14.10;11.90;;;2.20;62.40;;;;;;5023647;28;20189;-89
2022/03/06 08:01:32;;;;;;;14.83;13.23;;;2.20;61.90;;;;;;5019098;28;20248;-90
2022/03/06 08:03:58;;;;;;;13.53;10.93;;;2.20;62.10;;;;;;5022907;28;20247;-89
2022/03/06 08:06:24;;;;;;;15.43;12.53;;;2.20;61.90;;;;;;5022169;28;20189;-89
2022/03/06 08:08:50;;;;;;;14.90;12.37;;;2.20;62.50;;;;;;5023260;28;20185;-89
2022/03/06 08:11:15;;;;;;;28.00;24.83;;;2.20;62.20;;;;;;5022986;28;20295;-89
2022/03/06 08:13:41;;;;;;;17.30;15.17;;;2.30;62.20;;;;;;5023699;28;20664;-89
2022/03/06 08:16:07;;;;;;;16.57;12.63;;;2.30;62.30;;;;;;5023201;28;20174;-88
2022/03/06 08:18:33;;;;;;;19.87;12.50;;;2.30;62.30;;;;;;5025896;28;20228;-89
2022/03/06 08:20:59;;;;;;;15.73;12.07;;;2.40;62.70;;;;;;5024857;28;20217;-89
2022/03/06 08:23:25;;;;;;;13.83;12.13;;;2.50;62.50;;;;;;5020869;28;20327;-89
2022/03/06 08:25:51;;;;;;;14.80;12.00;;;2.60;61.90;;;;;;5023898;28;20193;-89
2022/03/06 08:28:17;;;;;;;15.03;11.73;;;2.60;61.90;;;;;;5037247;28;20193;-90
2022/03/06 08:30:43;;;;;;;13.97;11.23;;;2.60;61.40;;;;;;5024324;28;20217;-88
2022/03/06 08:33:09;;;;;;;14.67;11.67;;;2.60;62.00;;;;;;5018200;28;20245;-90
2022/03/06 08:35:35;;;;;;;14.40;12.00;;;2.60;61.80;;;;;;5022440;28;20668;-89
2022/03/06 08:38:01;;;;;;;14.43;11.70;;;2.70;62.10;;;;;;5004610;28;20197;-89
2022/03/06 08:40:27;;;;;;;13.00;11.17;;;2.70;61.60;;;;;;5023790;28;20212;-89
2022/03/06 08:42:53;;;;;;;14.23;12.13;;;2.80;61.50;;;;;;5024212;28;20200;-89
2022/03/06 08:45:19;;;;;;;14.90;12.30;;;2.80;61.70;;;;;;5009420;28;20190;-89
2022/03/06 08:47:45;;;;;;;15.50;11.77;;;2.90;61.30;;;;;;5019913;28;20207;-89
2022/03/06 08:50:11;;;;;;;15.07;11.90;;;3.00;61.60;;;;;;5018014;28;20214;-89
2022/03/06 08:52:37;;;;;;;13.80;11.73;;;3.10;60.40;;;;;;5023009;28;20222;-89
2022/03/06 08:55:04;;;;;;;16.60;12.00;;;3.20;60.50;;;;;;5019986;28;20190;-89
2022/03/06 08:57:30;;;;;;;15.47;11.87;;;3.30;60.20;;;;;;5024370;28;20261;-89
2022/03/06 08:59:55;;;;;;;12.13;10.83;;;3.20;60.60;;;;;;5014220;28;20233;-89
2022/03/06 09:02:21;;;;;;;13.10;11.23;;;3.50;59.00;;;;;;5023869;28;20186;-89
2022/03/06 09:04:48;;;;;;;16.20;11.97;;;3.60;59.10;;;;;;5007414;28;20209;-88
2022/03/06 09:07:13;;;;;;;14.57;11.83;;;3.80;57.50;;;;;;5020240;28;20227;-88
2022/03/06 09:09:39;;;;;;;15.97;11.83;;;3.90;56.70;;;;;;5023794;28;20209;-88
2022/03/06 09:12:05;;;;;;;13.97;12.20;;;3.90;56.50;;;;;;5025583;28;20205;-88
2022/03/06 09:14:31;;;;;;;18.37;12.30;;;3.90;57.20;;;;;;5026758;28;20201;-88
2022/03/06 09:16:57;;;;;;;15.43;12.20;;;4.10;56.30;;;;;;5034480;28;20186;-88
2022/03/06 09:19:23;;;;;;;17.40;11.47;;;4.30;55.50;;;;;;5021654;28;20206;-88
2022/03/06 09:21:49;;;;;;;13.23;11.83;;;4.30;55.50;;;;;;5025165;28;20209;-88
2022/03/06 09:24:15;;;;;;;16.10;12.80;;;4.50;55.20;;;;;;5009169;28;20193;-88
2022/03/06 09:26:42;;;;;;;16.00;13.00;;;4.60;53.80;;;;;;5026489;28;20202;-88
2022/03/06 09:29:08;;;;;;;15.40;11.50;;;4.60;53.70;;;;;;5026515;28;20201;-88
2022/03/06 09:31:34;;;;;;;13.97;12.10;;;4.70;53.30;;;;;;5027438;28;20194;-88
2022/03/06 09:34:00;;;;;;;15.17;12.03;;;4.80;52.60;;;;;;5007245;28;20221;-89
2022/03/06 09:36:25;;;;;;;14.63;12.17;;;4.90;53.20;;;;;;5018821;28;20190;-89
2022/03/06 09:38:51;;;;;;;15.10;12.97;;;4.90;52.60;;;;;;5024757;28;20197;-89
2022/03/06 09:41:21;;;;;;;17.13;12.17;;;5.10;52.80;;;;;;5011271;28;20270;-89
2022/03/06 09:43:49;;;;;;;14.73;12.40;;;5.30;51.40;;;;;;5013365;28;20206;-89
2022/03/06 09:46:15;;;;;;;14.03;12.13;;;5.30;51.20;;;;;;5015494;28;20704;-89
2022/03/06 09:48:42;;;;;;;16.40;13.23;;;5.50;51.00;;;;;;5011906;28;20251;-89
2022/03/06 09:51:07;;;;;;;14.17;12.10;;;5.60;50.90;;;;;;5037967;28;20201;-88
2022/03/06 09:53:33;;;;;;;14.37;11.80;;;5.80;50.40;;;;;;5036226;28;20236;-89
2022/03/06 09:55:59;;;;;;;16.43;13.07;;;5.90;49.00;;;;;;5026636;28;20225;-90
2022/03/06 09:58:25;;;;;;;14.47;12.57;;;6.00;49.20;;;;;;5027732;28;20197;-89
2022/03/06 10:00:52;;;;;;;15.33;12.83;;;6.30;48.60;;;;;;5021055;28;20221;-89
2022/03/06 10:03:20;;;;;;;15.63;13.03;;;6.30;46.30;;;;;;5020525;28;20198;-89
2022/03/06 10:05:46;;;;;;;14.23;12.73;;;6.20;46.80;;;;;;5023220;28;20271;-89
2022/03/06 10:08:28;;;;;;;15.33;12.23;;;6.40;45.90;;;;;;5023554;28;20202;-89
2022/03/06 10:10:59;;;;;;;14.03;12.57;;;6.60;45.90;;;;;;5021591;28;20202;-89
2022/03/06 10:13:38;;;;;;;15.47;12.97;;;6.70;44.70;;;;;;5022627;28;20213;-89
2022/03/06 10:16:12;;;;;;;14.10;12.10;;;6.80;44.40;;;;;;5021075;28;20181;-89
2022/03/06 10:18:44;;;;;;;14.47;12.97;;;7.00;44.10;;;;;;5015766;28;20196;-89
2022/03/06 10:21:11;;;;;;;14.57;11.87;;;7.00;43.60;;;;;;5009968;28;20292;-89
2022/03/06 10:23:37;;;;;;;13.50;11.27;;;7.20;42.60;;;;;;5033696;28;20181;-89
2022/03/06 10:26:07;;;;;;;12.97;11.40;;;7.30;41.10;;;;;;5020131;28;20196;-89
2022/03/06 10:29:00;;;;;;;12.60;11.20;;;7.00;42.00;;;;;;5016771;28;20190;-88
2022/03/06 10:31:31;;;;;;;13.83;12.40;;;6.80;42.60;;;;;;5014828;28;20232;-88
2022/03/06 10:34:09;;;;;;;14.13;11.97;;;6.90;42.50;;;;;;5013018;28;20209;-88
2022/03/06 10:36:41;;;;;;;13.30;11.60;;;6.90;43.10;;;;;;5019843;28;20827;-88
2022/03/06 10:39:17;;;;;;;12.43;11.20;;;6.80;41.50;;;;;;5019889;28;20296;-88
2022/03/06 10:41:47;;;;;;;13.70;11.40;;;6.90;41.20;;;;;;5017964;28;20197;-88
2022/03/06 10:44:14;;;;;;;14.87;11.00;;;6.80;40.80;;;;;;5019471;28;20189;-88
2022/03/06 10:46:41;;;;;;;13.50;10.63;;;6.80;40.70;;;;;;5018628;28;20206;-88
2022/03/06 10:49:15;;;;;;;12.70;11.23;;;6.70;40.40;;;;;;5014427;28;20217;-87
2022/03/06 10:51:47;;;;;;;12.40;10.87;;;6.60;40.90;;;;;;5028431;28;20197;-88
2022/03/06 10:54:14;;;;;;;12.20;10.90;;;6.40;41.80;;;;;;5018918;28;20201;-88
2022/03/06 10:56:43;;;;;;;11.57;9.97;;;6.50;41.90;;;;;;5014929;28;20679;-88
2022/03/06 10:59:10;;;;;;;12.33;10.93;;;6.50;40.90;;;;;;5009213;28;20201;-87
2022/03/06 11:01:38;;;;;;;11.73;9.57;;;6.30;40.50;;;;;;5019241;28;20190;-88
2022/03/06 11:04:06;;;;;;;12.77;10.57;;;6.10;40.00;;;;;;5014974;28;20193;-88
2022/03/06 11:06:42;;;;;;;11.60;9.77;;;6.10;40.60;;;;;;5015406;28;20226;-87
2022/03/06 11:09:13;;;;;;;11.53;10.33;;;6.10;41.10;;;;;;5012513;28;20676;-88
2022/03/06 11:11:46;;;;;;;10.97;9.80;;;6.30;40.90;;;;;;5011510;28;20197;-88
2022/03/06 11:14:13;;;;;;;11.27;9.90;;;6.30;40.00;;;;;;5013563;28;20304;-88
2022/03/06 11:16:40;;;;;;;10.47;9.30;;;6.40;39.00;;;;;;5006325;28;20247;-87
2022/03/06 11:19:08;;;;;;;11.73;10.10;;;6.40;38.70;;;;;;5011228;28;20719;-88
2022/03/06 11:21:35;;;;;;;9.50;8.60;;;6.30;39.20;;;;;;5015228;28;20202;-88
2022/03/06 11:24:09;;;;;;;10.10;9.17;;;6.30;38.20;;;;;;5013180;28;20641;-88
2022/03/06 11:27:16;;;;;;;16.60;9.73;;;6.40;38.10;;;;;;5019828;28;20220;-87
2022/03/06 11:30:02;;;;;;;10.40;8.77;;;6.50;38.00;;;;;;5005652;28;20212;-88
2022/03/06 11:32:31;;;;;;;12.80;9.67;;;6.60;37.90;;;;;;5013281;28;20214;-87
2022/03/06 11:35:06;;;;;;;9.83;8.83;;;6.60;37.60;;;;;;5014506;28;20213;-87
2022/03/06 11:37:55;;;;;;;9.47;7.83;;;6.90;37.30;;;;;;5017303;28;20492;-88
2022/03/06 11:40:40;;;;;;;10.63;9.10;;;7.50;36.50;;;;;;5018106;28;20284;-88
2022/03/06 11:43:09;;;;;;;11.00;9.83;;;7.90;35.30;;;;;;5017285;28;20196;-88
2022/03/06 11:45:58;;;;;;;10.63;8.93;;;7.80;35.10;;;;;;5015579;28;20620;-87
2022/03/06 11:48:46;;;;;;;10.37;9.33;;;7.70;35.30;;;;;;5015201;28;20193;-88
2022/03/06 11:51:18;;;;;;;11.37;9.70;;;7.70;35.50;;;;;;5017267;28;20214;-87
2022/03/06 11:53:47;;;;;;;10.70;8.70;;;7.90;35.50;;;;;;5019379;28;20209;-88
2022/03/06 11:56:31;;;;;;;11.33;9.07;;;8.20;35.60;;;;;;5023158;28;20200;-88
2022/03/06 11:59:01;;;;;;;10.50;9.40;;;8.70;34.50;;;;;;5015910;28;20257;-88
2022/03/06 12:01:44;;;;;;;10.93;9.83;;;8.80;33.80;;;;;;5019476;28;20212;-88
2022/03/06 12:04:21;;;;;;;12.73;10.23;;;9.20;34.40;;;;;;5025432;28;20189;-88
2022/03/06 12:06:53;;;;;;;10.63;9.60;;;9.20;33.00;;;;;;5033033;28;20180;-87
2022/03/06 12:09:23;;;;;;;10.67;9.60;;;9.30;33.20;;;;;;5029849;28;20204;-88
2022/03/06 12:11:51;;;;;;;11.93;10.80;;;9.30;33.70;;;;;;5012003;28;20246;-89
2022/03/06 12:14:27;;;;;;;10.83;9.73;;;9.50;33.20;;;;;;5017425;28;20852;-89
2022/03/06 12:19:29;;;;;;;11.40;10.23;;;10.00;32.20;;;;;;5015305;28;20213;-89
2022/03/06 12:22:16;;;;;;;10.73;9.73;;;10.40;31.00;;;;;;5021358;28;20194;-89
2022/03/06 12:24:44;;;;;;;12.23;11.07;;;10.60;30.30;;;;;;5014469;28;20185;-90
2022/03/06 12:27:14;;;;;;;11.20;10.10;;;10.70;30.10;;;;;;5017352;28;20222;-90
2022/03/06 12:29:46;;;;;;;10.93;9.93;;;10.60;30.20;;;;;;5018554;28;20233;-90
2022/03/06 12:32:29;;;;;;;10.47;9.43;;;10.80;30.30;;;;;;5017648;28;20200;-90
2022/03/06 12:35:08;;;;;;;11.17;10.07;;;11.00;29.10;;;;;;5017890;28;20292;-89
2022/03/06 12:37:39;;;;;;;11.37;10.27;;;11.00;29.10;;;;;;5013674;28;20269;-90
2022/03/06 12:40:15;;;;;;;11.23;10.23;;;11.20;29.10;;;;;;5019093;28;20209;-89
2022/03/06 12:42:43;;;;;;;10.53;9.63;;;11.10;29.00;;;;;;5020234;28;20634;-89
2022/03/06 12:45:12;;;;;;;11.27;10.17;;;11.20;29.00;;;;;;5009619;28;20220;-89